createdAt,value
2018-12-10T00:01:51.838Z,3.03
2018-12-10T00:04:20.348Z,3.87
2018-12-10T00:06:49.001Z,3.00
2018-12-10T00:09:17.469Z,3.07
2018-12-10T00:11:46.457Z,3.67
2018-12-10T00:14:15.111Z,3.50
2018-12-10T00:16:43.777Z,3.53
2018-12-10T00:19:13.235Z,2.53
2018-12-10T00:21:41.788Z,3.10
2018-12-10T00:24:11.156Z,3.47
2018-12-10T00:26:39.744Z,3.03
2018-12-10T00:29:08.429Z,3.10
2018-12-10T00:31:36.971Z,2.90
2018-12-10T00:34:05.502Z,3.63
2018-12-10T00:36:33.991Z,3.00
2018-12-10T00:39:02.753Z,3.43
2018-12-10T00:41:31.423Z,2.50
2018-12-10T00:44:00.511Z,2.60
2018-12-10T00:46:29.230Z,3.17
2018-12-10T00:48:58.283Z,2.47
2018-12-10T00:51:26.746Z,3.33
2018-12-10T00:53:55.302Z,2.47
2018-12-10T00:56:23.770Z,2.50
2018-12-10T00:58:52.417Z,2.93
2018-12-10T01:01:20.854Z,2.60
2018-12-10T01:03:49.445Z,2.43
2018-12-10T01:06:18.130Z,2.83
2018-12-10T01:08:46.631Z,2.17
2018-12-10T01:11:15.175Z,2.17
2018-12-10T01:13:43.639Z,2.10
2018-12-10T01:16:12.169Z,2.20
2018-12-10T01:18:40.634Z,1.50
2018-12-10T01:21:09.179Z,1.90
2018-12-10T01:23:37.739Z,1.80
2018-12-10T01:26:06.279Z,2.93
2018-12-10T01:28:34.769Z,1.73
2018-12-10T01:31:03.597Z,1.80
2018-12-10T01:33:32.047Z,1.90
2018-12-10T01:36:00.490Z,1.50
2018-12-10T01:38:28.947Z,1.87
2018-12-10T01:40:57.462Z,1.40
2018-12-10T01:43:26.007Z,1.77
2018-12-10T01:45:54.452Z,1.50
2018-12-10T01:48:22.918Z,1.70
2018-12-10T01:50:51.402Z,1.70
2018-12-10T01:53:19.959Z,1.53
2018-12-10T01:55:48.520Z,2.03
2018-12-10T01:58:16.929Z,1.90
2018-12-10T02:00:45.484Z,2.17
2018-12-10T02:03:13.960Z,2.03
2018-12-10T02:05:42.486Z,2.10
2018-12-10T02:08:11.532Z,1.80
2018-12-10T02:10:40.003Z,2.60
2018-12-10T02:13:08.495Z,1.90
2018-12-10T02:15:37.073Z,2.20
2018-12-10T02:18:06.374Z,2.37
2018-12-10T02:20:34.800Z,2.87
2018-12-10T02:23:03.263Z,1.83
2018-12-10T02:25:32.241Z,2.00
2018-12-10T02:28:00.785Z,2.17
2018-12-10T02:30:29.225Z,2.07
2018-12-10T02:32:58.382Z,2.27
2018-12-10T02:35:26.980Z,2.50
2018-12-10T02:37:55.433Z,2.53
2018-12-10T02:40:24.009Z,1.93
2018-12-10T02:42:52.460Z,2.03
2018-12-10T02:45:21.154Z,1.60
2018-12-10T02:47:49.600Z,1.90
2018-12-10T02:50:18.373Z,1.87
2018-12-10T02:52:46.882Z,1.67
2018-12-10T02:55:15.455Z,1.83
2018-12-10T02:57:45.330Z,1.50
2018-12-10T03:00:13.792Z,2.33
2018-12-10T03:02:42.289Z,2.43
2018-12-10T03:05:10.976Z,1.00
2018-12-10T03:07:39.807Z,1.30
2018-12-10T03:10:08.626Z,1.40
2018-12-10T03:12:37.115Z,1.60
2018-12-10T03:15:05.980Z,1.67
2018-12-10T03:17:34.461Z,1.53
2018-12-10T03:20:03.796Z,1.27
2018-12-10T03:22:32.291Z,1.30
2018-12-10T03:25:00.802Z,1.53
2018-12-10T03:27:29.589Z,2.27
2018-12-10T03:29:58.184Z,2.03
2018-12-10T03:32:26.735Z,1.47
2018-12-10T03:34:55.415Z,1.40
2018-12-10T03:37:24.123Z,1.30
2018-12-10T03:39:53.086Z,1.60
2018-12-10T03:42:21.542Z,1.30
2018-12-10T03:44:50.943Z,1.23
2018-12-10T03:47:20.061Z,1.80
2018-12-10T03:49:48.504Z,2.17
2018-12-10T03:52:17.023Z,1.07
2018-12-10T03:54:45.586Z,1.50
2018-12-10T03:57:14.146Z,1.20
2018-12-10T03:59:42.805Z,0.93
2018-12-10T04:02:11.261Z,1.00
2018-12-10T04:04:39.791Z,0.90
2018-12-10T04:07:08.260Z,0.80
2018-12-10T04:09:36.744Z,1.13
2018-12-10T04:12:05.206Z,1.80
2018-12-10T04:14:33.840Z,0.90
2018-12-10T04:17:02.788Z,1.70
2018-12-10T04:19:32.035Z,1.30
2018-12-10T04:22:00.602Z,1.10
2018-12-10T04:24:29.093Z,1.43
2018-12-10T04:26:57.702Z,1.47
2018-12-10T04:29:26.212Z,1.30
2018-12-10T04:31:54.902Z,1.40
2018-12-10T04:34:24.311Z,1.90
2018-12-10T04:36:53.167Z,2.00
2018-12-10T04:39:21.628Z,2.17
2018-12-10T04:41:50.185Z,2.20
2018-12-10T04:44:18.806Z,1.93
2018-12-10T04:46:47.262Z,1.83
2018-12-10T04:49:15.754Z,1.97
2018-12-10T04:51:44.254Z,2.27
2018-12-10T04:54:12.870Z,1.90
2018-12-10T04:56:41.565Z,2.37
2018-12-10T04:59:10.511Z,2.57
2018-12-10T05:01:39.178Z,2.67
2018-12-10T05:04:07.642Z,2.87
2018-12-10T05:06:36.212Z,3.63
2018-12-10T05:09:07.328Z,2.70
2018-12-10T05:11:35.797Z,2.93
2018-12-10T05:14:04.315Z,3.43
2018-12-10T05:16:32.886Z,2.83
2018-12-10T05:19:01.405Z,3.63
2018-12-10T05:21:29.989Z,2.83
2018-12-10T05:23:59.063Z,3.40
2018-12-10T05:26:27.784Z,3.13
2018-12-10T05:28:56.288Z,3.47
2018-12-10T05:31:29.293Z,3.27
2018-12-10T05:33:57.940Z,2.40
2018-12-10T05:36:26.534Z,2.60
2018-12-10T05:38:55.334Z,3.43
2018-12-10T05:41:24.518Z,3.13
2018-12-10T05:43:53.214Z,2.50
2018-12-10T05:46:21.778Z,2.60
2018-12-10T05:48:50.285Z,3.00
2018-12-10T05:51:18.865Z,2.80
2018-12-10T05:53:47.341Z,2.57
2018-12-10T05:56:15.823Z,2.30
2018-12-10T05:58:44.281Z,2.90
2018-12-10T06:01:12.829Z,3.10
2018-12-10T06:03:41.326Z,3.10
2018-12-10T06:06:09.765Z,2.40
2018-12-10T06:08:39.189Z,2.57
2018-12-10T06:11:07.657Z,2.63
2018-12-10T06:13:36.257Z,2.50
2018-12-10T06:16:04.906Z,2.83
2018-12-10T06:18:33.376Z,4.43
2018-12-10T06:21:01.848Z,4.70
2018-12-10T06:23:30.377Z,5.50
2018-12-10T06:25:59.310Z,4.43
2018-12-10T06:28:27.906Z,4.77
2018-12-10T06:30:56.612Z,4.40
2018-12-10T06:33:25.646Z,4.07
2018-12-10T06:35:55.156Z,3.77
2018-12-10T06:38:23.683Z,3.90
2018-12-10T06:40:52.140Z,3.80
2018-12-10T06:43:20.611Z,3.70
2018-12-10T06:45:49.065Z,3.07
2018-12-10T06:48:18.097Z,4.43
2018-12-10T06:50:46.568Z,3.00
2018-12-10T06:53:15.770Z,2.77
2018-12-10T06:55:44.299Z,3.37
2018-12-10T06:58:12.842Z,2.50
2018-12-10T07:00:41.467Z,2.43
2018-12-10T07:03:09.949Z,3.30
2018-12-10T07:05:38.894Z,2.93
2018-12-10T07:08:07.428Z,2.73
2018-12-10T07:10:35.890Z,2.40
2018-12-10T07:13:04.397Z,3.50
2018-12-10T07:15:32.965Z,3.23
2018-12-10T07:18:01.468Z,3.70
2018-12-10T07:20:30.589Z,3.50
2018-12-10T07:22:59.085Z,2.60
2018-12-10T07:25:27.746Z,3.53
2018-12-10T07:27:56.226Z,2.97
2018-12-10T07:30:24.683Z,3.27
2018-12-10T07:32:53.177Z,3.97
2018-12-10T07:35:21.754Z,3.20
2018-12-10T07:37:50.222Z,2.63
2018-12-10T07:40:18.696Z,2.57
2018-12-10T07:42:47.326Z,2.50
2018-12-10T07:45:15.811Z,4.23
2018-12-10T07:47:44.346Z,3.83
2018-12-10T07:50:13.035Z,3.73
2018-12-10T07:52:41.587Z,4.00
2018-12-10T07:55:10.579Z,5.07
2018-12-10T07:57:39.144Z,4.20
2018-12-10T08:00:08.190Z,4.13
2018-12-10T08:02:36.779Z,5.23
2018-12-10T08:05:12.234Z,4.13
2018-12-10T08:07:36.075Z,5.30
2018-12-10T08:10:05.150Z,4.27
2018-12-10T08:12:33.623Z,4.23
2018-12-10T08:15:02.122Z,5.23
2018-12-10T08:17:31.232Z,5.03
2018-12-10T08:19:59.841Z,4.93
2018-12-10T08:22:28.273Z,4.83
2018-12-10T08:24:57.065Z,5.33
2018-12-10T08:27:25.641Z,4.27
2018-12-10T08:29:54.385Z,3.07
2018-12-10T08:32:22.893Z,4.47
2018-12-10T08:34:51.340Z,4.67
2018-12-10T08:37:19.821Z,5.27
2018-12-10T08:39:48.354Z,4.97
2018-12-10T08:42:16.845Z,3.90
2018-12-10T08:44:45.399Z,2.97
2018-12-10T08:47:16.212Z,2.80
2018-12-10T08:49:44.619Z,3.50
2018-12-10T08:52:13.700Z,2.77
2018-12-10T08:54:42.207Z,2.40
2018-12-10T08:57:10.824Z,3.20
2018-12-10T08:59:39.787Z,2.67
2018-12-10T09:02:08.988Z,2.70
2018-12-10T09:04:37.892Z,2.60
2018-12-10T09:07:06.506Z,2.40
2018-12-10T09:09:35.932Z,2.27
2018-12-10T09:12:04.564Z,2.13
2018-12-10T09:14:33.825Z,2.00
2018-12-10T09:17:02.328Z,2.50
2018-12-10T09:19:30.850Z,2.37
2018-12-10T09:21:59.895Z,2.13
2018-12-10T09:24:28.374Z,2.33
2018-12-10T09:26:57.538Z,2.03
2018-12-10T09:29:26.139Z,2.70
2018-12-10T09:31:54.606Z,2.00
2018-12-10T09:34:23.049Z,1.87
2018-12-10T09:36:51.619Z,2.50
2018-12-10T09:39:20.065Z,2.20
2018-12-10T09:41:48.550Z,2.10
2018-12-10T09:44:17.287Z,2.60
2018-12-10T09:46:45.919Z,2.27
2018-12-10T09:49:14.426Z,2.37
2018-12-10T09:51:43.804Z,2.43
2018-12-10T09:54:12.250Z,3.20
2018-12-10T09:56:40.697Z,2.40
2018-12-10T09:59:09.242Z,2.20
2018-12-10T10:01:37.717Z,2.67
2018-12-10T10:04:06.188Z,2.50
2018-12-10T10:06:34.756Z,2.43
2018-12-10T10:09:04.404Z,2.27
2018-12-10T10:11:32.867Z,2.43
2018-12-10T10:14:01.385Z,2.60
2018-12-10T10:16:29.818Z,1.90
2018-12-10T10:18:58.309Z,2.50
2018-12-10T10:21:26.820Z,2.37
2018-12-10T10:23:55.307Z,2.60
2018-12-10T10:26:23.923Z,1.90
2018-12-10T10:28:52.529Z,2.27
2018-12-10T10:31:21.015Z,2.20
2018-12-10T10:33:49.475Z,2.53
2018-12-10T10:36:17.948Z,3.13
2018-12-10T10:38:46.444Z,2.40
2018-12-10T10:41:15.044Z,2.63
2018-12-10T10:43:43.588Z,2.40
2018-12-10T10:46:12.036Z,2.57
2018-12-10T10:48:40.613Z,2.03
2018-12-10T10:51:09.086Z,2.33
2018-12-10T10:53:37.572Z,2.43
2018-12-10T10:56:06.273Z,2.50
2018-12-10T10:58:34.735Z,2.23
2018-12-10T11:02:06.418Z,2.50
2018-12-10T11:04:37.675Z,2.47
2018-12-10T11:07:05.444Z,2.47
2018-12-10T11:09:33.958Z,2.30
2018-12-10T11:12:02.921Z,2.23
2018-12-10T11:14:31.460Z,2.67
2018-12-10T11:17:00.065Z,2.57
2018-12-10T11:19:29.196Z,2.03
2018-12-10T11:21:57.684Z,2.07
2018-12-10T11:24:26.185Z,1.80
2018-12-10T11:26:54.707Z,1.63
2018-12-10T11:29:23.268Z,2.83
2018-12-10T11:31:51.740Z,1.57
2018-12-10T11:34:20.611Z,1.40
2018-12-10T11:36:49.790Z,2.47
2018-12-10T11:39:18.373Z,1.60
2018-12-10T11:41:46.894Z,1.90
2018-12-10T11:44:15.352Z,2.00
2018-12-10T11:46:45.003Z,1.50
2018-12-10T11:49:13.554Z,1.70
2018-12-10T11:51:42.354Z,1.77
2018-12-10T11:54:10.875Z,2.60
2018-12-10T11:56:39.486Z,2.33
2018-12-10T11:59:08.304Z,2.13
2018-12-10T12:01:37.209Z,1.83
2018-12-10T12:04:05.817Z,2.70
2018-12-10T12:06:34.739Z,1.60
2018-12-10T12:09:04.890Z,2.00
2018-12-10T12:11:33.442Z,2.10
2018-12-10T12:14:02.589Z,2.40
2018-12-10T12:16:31.101Z,3.50
2018-12-10T12:18:59.575Z,1.90
2018-12-10T12:21:28.097Z,1.90
2018-12-10T12:23:57.470Z,2.30
2018-12-10T12:26:25.967Z,2.23
2018-12-10T12:28:54.576Z,1.67
2018-12-10T12:31:23.103Z,2.00
2018-12-10T12:33:51.561Z,1.73
2018-12-10T12:36:20.033Z,1.83
2018-12-10T12:38:48.534Z,1.97
2018-12-10T12:41:17.038Z,2.30
2018-12-10T12:43:45.500Z,2.30
2018-12-10T12:46:13.949Z,2.90
2018-12-10T12:48:42.404Z,3.50
2018-12-10T12:51:10.918Z,2.40
2018-12-10T12:53:39.416Z,3.17
2018-12-10T12:56:07.949Z,2.43
2018-12-10T12:58:36.438Z,2.77
2018-12-10T13:01:04.950Z,3.00
2018-12-10T13:03:33.842Z,2.10
2018-12-10T13:06:06.759Z,2.83
2018-12-10T13:08:32.733Z,2.90
2018-12-10T13:11:01.196Z,2.93
2018-12-10T13:13:29.661Z,3.07
2018-12-10T13:15:58.109Z,3.10
2018-12-10T13:18:26.529Z,2.40
2018-12-10T13:20:55.165Z,2.43
2018-12-10T13:23:23.628Z,2.87
2018-12-10T13:25:52.096Z,3.37
2018-12-10T13:28:20.555Z,3.37
2018-12-10T13:30:48.976Z,2.60
2018-12-10T13:33:18.017Z,2.17
2018-12-10T13:35:46.677Z,3.20
2018-12-10T13:38:15.137Z,2.77
2018-12-10T13:40:43.713Z,4.17
2018-12-10T13:43:12.728Z,5.77
2018-12-10T13:45:41.169Z,9.53
2018-12-10T13:48:09.632Z,8.47
2018-12-10T13:50:38.160Z,4.37
2018-12-10T13:53:06.606Z,1.63
2018-12-10T13:55:35.640Z,2.83
2018-12-10T13:58:04.122Z,3.27
2018-12-10T14:00:32.577Z,2.20
2018-12-10T14:03:05.147Z,2.27
2018-12-10T14:05:33.716Z,2.10
2018-12-10T14:08:02.147Z,1.53
2018-12-10T14:10:30.592Z,1.53
2018-12-10T14:12:59.169Z,1.60
2018-12-10T14:15:27.766Z,2.23
2018-12-10T14:17:56.230Z,2.37
2018-12-10T14:20:25.012Z,2.23
2018-12-10T14:22:53.469Z,1.90
2018-12-10T14:25:28.666Z,2.20
2018-12-10T14:27:57.294Z,2.63
2018-12-10T14:30:26.471Z,2.40
2018-12-10T14:32:55.233Z,2.23
2018-12-10T14:35:23.726Z,3.57
2018-12-10T14:37:52.284Z,2.70
2018-12-10T14:40:20.934Z,2.57
2018-12-10T14:42:58.091Z,2.67
2018-12-10T14:45:26.578Z,2.63
2018-12-10T14:47:57.289Z,2.33
2018-12-10T14:50:26.320Z,2.20
2018-12-10T14:52:55.037Z,1.87
2018-12-10T14:55:23.642Z,2.00
2018-12-10T14:57:52.113Z,1.93
2018-12-10T15:00:20.702Z,1.83
2018-12-10T15:02:49.192Z,1.67
2018-12-10T15:05:17.756Z,1.83
2018-12-10T15:07:46.284Z,1.73
2018-12-10T15:10:14.892Z,1.70
2018-12-10T15:12:43.350Z,2.13
2018-12-10T15:15:11.858Z,3.70
2018-12-10T15:17:40.855Z,2.77
2018-12-10T15:20:12.580Z,3.10
2018-12-10T15:22:41.251Z,2.13
2018-12-10T15:25:10.751Z,2.27
2018-12-10T15:27:39.265Z,2.17
2018-12-10T15:30:10.602Z,1.97
2018-12-10T15:32:39.097Z,2.07
2018-12-10T15:35:08.609Z,2.47
2018-12-10T15:37:37.338Z,2.80
2018-12-10T15:40:07.053Z,3.00
2018-12-10T15:42:35.511Z,3.83
2018-12-10T15:45:04.630Z,3.93
2018-12-10T15:47:33.114Z,2.37
2018-12-10T15:50:01.645Z,2.60
2018-12-10T15:52:30.207Z,1.77
2018-12-10T15:54:58.748Z,2.30
2018-12-10T15:57:27.261Z,2.60
2018-12-10T15:59:56.381Z,1.70
2018-12-10T16:02:25.024Z,1.33
2018-12-10T16:04:53.585Z,2.40
2018-12-10T16:07:22.222Z,1.93
2018-12-10T16:09:50.785Z,1.60
2018-12-10T16:12:20.242Z,1.83
2018-12-10T16:14:48.701Z,1.60
2018-12-10T16:17:17.503Z,1.73
2018-12-10T16:19:45.974Z,1.93
2018-12-10T16:22:14.407Z,1.50
2018-12-10T16:24:42.919Z,1.77
2018-12-10T16:27:11.756Z,1.40
2018-12-10T16:29:40.206Z,1.70
2018-12-10T16:32:10.130Z,2.27
2018-12-10T16:34:38.600Z,2.47
2018-12-10T16:37:08.070Z,2.90
2018-12-10T16:39:36.582Z,2.20
2018-12-10T16:42:05.184Z,3.40
2018-12-10T16:44:33.640Z,2.23
2018-12-10T16:47:02.083Z,3.00
2018-12-10T16:49:30.728Z,3.23
2018-12-10T16:51:59.287Z,2.47
2018-12-10T16:54:27.811Z,4.07
2018-12-10T16:56:56.502Z,3.93
2018-12-10T16:59:25.014Z,3.50
2018-12-10T17:01:53.576Z,3.53
2018-12-10T17:04:22.103Z,3.70
2018-12-10T17:06:51.725Z,3.17
2018-12-10T17:09:20.595Z,3.33
2018-12-10T17:11:50.634Z,3.27
2018-12-10T17:14:19.774Z,3.10
2018-12-10T17:16:48.684Z,2.50
2018-12-10T17:19:17.175Z,2.40
2018-12-10T17:21:45.663Z,2.47
2018-12-10T17:24:14.208Z,3.00
2018-12-10T17:26:42.733Z,4.07
2018-12-10T17:29:11.305Z,2.73
2018-12-10T17:31:39.799Z,2.30
2018-12-10T17:34:08.283Z,3.47
2018-12-10T17:36:37.076Z,2.70
2018-12-10T17:39:08.725Z,3.73
2018-12-10T17:41:38.735Z,2.70
2018-12-10T17:44:07.474Z,4.80
2018-12-10T17:46:35.961Z,3.20
2018-12-10T17:49:04.668Z,3.13
2018-12-10T17:51:33.184Z,2.80
2018-12-10T17:54:01.915Z,2.90
2018-12-10T17:56:30.612Z,3.27
2018-12-10T17:58:59.233Z,3.87
2018-12-10T18:01:27.848Z,2.40
2018-12-10T18:03:56.912Z,2.90
2018-12-10T18:06:25.605Z,1.67
2018-12-10T18:08:54.245Z,2.60
2018-12-10T18:11:22.862Z,2.53
2018-12-10T18:13:51.395Z,2.10
2018-12-10T18:16:19.983Z,1.67
2018-12-10T18:18:48.612Z,2.10
2018-12-10T18:21:17.670Z,1.83
2018-12-10T18:23:46.629Z,1.57
2018-12-10T18:26:16.110Z,2.03
2018-12-10T18:28:44.977Z,2.53
2018-12-10T18:31:13.388Z,3.30
2018-12-10T18:33:42.158Z,4.83
2018-12-10T18:36:10.917Z,3.07
2018-12-10T18:38:39.451Z,2.33
2018-12-10T18:41:07.909Z,3.30
2018-12-10T18:43:36.505Z,1.67
2018-12-10T18:46:04.969Z,2.80
2018-12-10T18:48:33.533Z,3.20
2018-12-10T18:51:02.026Z,3.30
2018-12-10T18:53:30.507Z,2.53
2018-12-10T18:55:59.002Z,2.50
2018-12-10T18:58:27.614Z,2.90
2018-12-10T19:00:56.296Z,3.50
2018-12-10T19:03:24.814Z,2.30
2018-12-10T19:05:53.238Z,2.97
2018-12-10T19:08:21.707Z,2.77
2018-12-10T19:10:51.056Z,2.80
2018-12-10T19:13:19.653Z,2.50
2018-12-10T19:15:48.385Z,2.90
2018-12-10T19:18:16.866Z,3.03
2018-12-10T19:20:45.443Z,3.27
2018-12-10T19:23:13.888Z,3.40
2018-12-10T19:25:42.718Z,4.13
2018-12-10T19:28:12.128Z,2.93
2018-12-10T19:30:40.644Z,2.87
2018-12-10T19:33:09.159Z,3.77
2018-12-10T19:35:37.752Z,3.97
2018-12-10T19:38:06.239Z,3.77
2018-12-10T19:40:36.622Z,3.00
2018-12-10T19:43:05.627Z,3.83
2018-12-10T19:45:34.110Z,3.70
2018-12-10T19:48:02.622Z,3.90
2018-12-10T19:50:31.075Z,3.60
2018-12-10T19:52:59.567Z,3.20
2018-12-10T19:55:28.201Z,3.63
2018-12-10T19:57:56.686Z,3.60
2018-12-10T20:00:25.919Z,2.83
2018-12-10T20:02:54.536Z,2.87
2018-12-10T20:05:27.212Z,3.50
2018-12-10T20:07:56.016Z,4.00
2018-12-10T20:10:24.521Z,2.80
2018-12-10T20:12:53.026Z,3.60
2018-12-10T20:15:21.815Z,2.43
2018-12-10T20:17:50.333Z,3.07
2018-12-10T20:20:18.830Z,3.30
2018-12-10T20:22:47.398Z,3.97
2018-12-10T20:25:15.954Z,3.27
2018-12-10T20:27:44.537Z,2.73
2018-12-10T20:30:13.323Z,3.42
2018-12-10T20:32:42.761Z,3.60
2018-12-10T20:35:11.334Z,3.03
2018-12-10T20:37:39.999Z,3.73
2018-12-10T20:40:08.592Z,3.23
2018-12-10T20:42:37.047Z,3.73
2018-12-10T20:45:07.053Z,3.40
2018-12-10T20:47:35.595Z,4.10
2018-12-10T20:50:05.189Z,3.97
2018-12-10T20:52:33.672Z,4.00
2018-12-10T20:55:02.095Z,3.67
2018-12-10T20:57:30.614Z,3.83
2018-12-10T20:59:59.232Z,3.27
2018-12-10T21:02:29.311Z,3.60
2018-12-10T21:04:59.179Z,3.20
2018-12-10T21:07:27.807Z,3.33
2018-12-10T21:09:57.017Z,3.67
2018-12-10T21:12:26.256Z,3.67
2018-12-10T21:15:00.189Z,3.80
2018-12-10T21:17:25.494Z,3.17
2018-12-10T21:19:54.136Z,3.93
2018-12-10T21:22:22.755Z,3.83
2018-12-10T21:24:51.363Z,4.33
2018-12-10T21:27:19.907Z,4.87
2018-12-10T21:29:48.350Z,5.03
2018-12-10T21:32:17.420Z,4.17
2018-12-10T21:34:46.492Z,3.50
2018-12-10T21:37:15.017Z,4.47
2018-12-10T21:39:43.741Z,5.70
2018-12-10T21:42:13.132Z,5.03
2018-12-10T21:44:41.683Z,5.20
2018-12-10T21:47:10.133Z,5.83
2018-12-10T21:49:38.987Z,5.33
2018-12-10T21:52:07.610Z,4.57
2018-12-10T21:54:36.244Z,4.90
2018-12-10T21:57:05.410Z,5.67
2018-12-10T21:59:34.449Z,4.33
2018-12-10T22:02:03.237Z,5.67
2018-12-10T22:04:32.440Z,5.07
2018-12-10T22:07:00.998Z,5.60
2018-12-10T22:09:29.515Z,5.10
2018-12-10T22:11:58.347Z,5.37
2018-12-10T22:14:26.886Z,5.80
2018-12-10T22:16:55.953Z,5.57
2018-12-10T22:19:24.456Z,5.67
2018-12-10T22:21:53.081Z,5.57
2018-12-10T22:24:21.866Z,5.37
2018-12-10T22:26:50.418Z,5.57
2018-12-10T22:29:18.868Z,6.73
2018-12-10T22:31:47.326Z,5.50
2018-12-10T22:34:15.816Z,6.33
2018-12-10T22:36:44.360Z,5.83
2018-12-10T22:39:13.528Z,5.58
2018-12-10T22:41:42.366Z,6.87
2018-12-10T22:44:10.935Z,5.93
2018-12-10T22:46:39.492Z,5.83
2018-12-10T22:49:08.409Z,5.20
2018-12-10T22:51:36.854Z,5.47
2018-12-10T22:54:06.468Z,7.20
2018-12-10T22:56:35.709Z,4.90
2018-12-10T22:59:04.911Z,6.73
2018-12-10T23:01:33.620Z,6.53
2018-12-10T23:04:02.215Z,6.43
2018-12-10T23:06:30.646Z,6.10
2018-12-10T23:08:59.110Z,6.10
2018-12-10T23:11:28.050Z,6.00
2018-12-10T23:13:56.679Z,5.57
2018-12-10T23:16:25.690Z,6.13
2018-12-10T23:18:54.162Z,6.47
2018-12-10T23:21:22.735Z,5.27
2018-12-10T23:23:51.314Z,5.87
2018-12-10T23:26:20.876Z,6.67
2018-12-10T23:28:49.318Z,5.97
2018-12-10T23:31:17.766Z,5.80
2018-12-10T23:33:46.261Z,5.63
2018-12-10T23:36:14.769Z,5.47
2018-12-10T23:38:43.362Z,5.03
2018-12-10T23:41:11.933Z,5.70
2018-12-10T23:43:40.442Z,4.87
2018-12-10T23:46:08.887Z,4.87
2018-12-10T23:48:37.341Z,4.53
2018-12-10T23:51:05.879Z,5.07
2018-12-10T23:53:34.335Z,5.40
2018-12-10T23:56:03.049Z,5.03
2018-12-10T23:58:31.585Z,5.10
